Time;durP1;ratioP1;P1;durP2;ratioP2;P2;SDS_P1;SDS_P2;PMS_P1;PMS_P2;Temp;Humidity;BMP_temperature;BMP_pressure;BME280_temperature;BME280_humidity;BME280_pressure;Samples;Min_cycle;Max_cycle;Signal;HPM_P1;HPM_P2
2021/08/07 00:01:03;;;;;;;5.97;4.30;;;;;;;14.37;74.92;98771.25;5077889;28;20079;-53
2021/08/07 00:03:29;;;;;;;10.15;4.15;;;;;;;14.32;75.17;98772.44;5079028;28;20386;-53
2021/08/07 00:05:55;;;;;;;5.82;3.45;;;;;;;14.26;75.26;98771.00;5079541;28;20052;-53
2021/08/07 00:08:21;;;;;;;6.05;3.95;;;;;;;14.22;75.35;98777.38;5078702;28;20075;-53
2021/08/07 00:10:46;;;;;;;6.07;3.50;;;;;;;14.17;75.14;98771.50;5078616;28;20049;-53
2021/08/07 00:13:12;;;;;;;3.97;2.88;;;;;;;14.12;75.25;98771.78;5078627;28;20040;-53
2021/08/07 00:15:38;;;;;;;6.13;3.80;;;;;;;14.09;74.84;98771.94;5078837;28;20086;-53
2021/08/07 00:18:04;;;;;;;6.65;3.95;;;;;;;14.07;74.85;98772.94;5078403;28;20060;-53
2021/08/07 00:20:30;;;;;;;7.93;4.00;;;;;;;14.01;74.96;98787.31;5078493;28;20079;-53
2021/08/07 00:22:55;;;;;;;6.97;3.97;;;;;;;13.97;75.01;98780.50;5078666;28;20063;-53
2021/08/07 00:25:21;;;;;;;5.20;3.50;;;;;;;13.92;75.45;98783.41;5111659;28;20052;-53
2021/08/07 00:27:47;;;;;;;6.20;3.45;;;;;;;13.87;75.31;98779.31;5078604;28;20059;-53
2021/08/07 00:30:13;;;;;;;8.15;4.03;;;;;;;13.82;75.62;98784.84;5078429;28;20045;-53
2021/08/07 00:32:39;;;;;;;8.73;3.80;;;;;;;13.80;75.46;98786.69;5077674;28;20366;-53
2021/08/07 00:35:09;;;;;;;9.20;4.07;;;;;;;13.76;75.68;98779.91;5094431;28;20060;-53
2021/08/07 00:37:36;;;;;;;6.38;3.83;;;;;;;13.72;75.79;98786.28;5111270;28;20041;-53
2021/08/07 00:40:06;;;;;;;5.63;3.80;;;;;;;13.66;75.87;98779.56;5094102;28;20417;-53
2021/08/07 00:42:32;;;;;;;5.45;3.53;;;;;;;13.64;76.16;98777.94;5077195;28;20048;-53
2021/08/07 00:45:00;;;;;;;5.20;3.72;;;;;;;13.62;76.42;98785.09;5077733;28;20043;-53
2021/08/07 00:47:29;;;;;;;6.15;3.20;;;;;;;13.59;76.17;98777.34;5094221;28;20051;-53
2021/08/07 00:49:55;;;;;;;6.45;3.38;;;;;;;13.53;76.35;98775.88;5078191;28;20053;-53
2021/08/07 00:52:21;;;;;;;8.20;4.07;;;;;;;13.51;76.46;98783.00;5093906;28;20040;-53
2021/08/07 00:54:50;;;;;;;6.22;4.07;;;;;;;13.46;76.41;98771.91;5077652;28;20113;-53
2021/08/07 00:57:17;;;;;;;6.55;3.40;;;;;;;13.43;76.59;98774.69;5060713;28;20135;-53
2021/08/07 00:59:43;;;;;;;7.97;3.80;;;;;;;13.39;76.68;98773.13;5093615;28;20057;-53
2021/08/07 01:02:20;;;;;;;5.22;3.28;;;;;;;13.39;76.85;98774.00;5093946;28;20147;-53
2021/08/07 01:04:59;;;;;;;7.38;4.07;;;;;;;13.35;77.21;98775.06;5077130;28;20057;-53
2021/08/07 01:07:44;;;;;;;8.75;4.13;;;;;;;13.32;76.78;98775.22;5093837;28;20056;-53
2021/08/07 01:10:29;;;;;;;7.22;3.70;;;;;;;13.26;76.94;98786.09;5077245;28;20041;-53
2021/08/07 01:13:40;;;;;;;6.30;4.07;;;;;;;13.23;77.37;98776.53;5110750;28;20113;-53
2021/08/07 01:16:25;;;;;;;8.95;5.03;;;;;;;13.20;77.45;98768.81;5063725;28;20110;-53
2021/08/07 01:18:51;;;;;;;12.15;5.85;;;;;;;13.17;77.18;98770.75;5093298;28;20041;-53
2021/08/07 01:21:22;;;;;;;14.63;5.57;;;;;;;13.16;76.92;98762.03;5060489;28;20059;-53
2021/08/07 01:23:55;;;;;;;15.38;6.25;;;;;;;13.12;77.33;98772.75;5093415;28;20041;-53
2021/08/07 01:26:32;;;;;;;12.30;5.78;;;;;;;13.12;77.67;98772.75;5094224;28;20161;-53
2021/08/07 01:29:19;;;;;;;11.65;5.28;;;;;;;13.05;77.58;98773.06;5093249;28;20445;-54
2021/08/07 01:31:52;;;;;;;10.27;4.93;;;;;;;13.03;77.75;98774.94;5094077;28;20048;-53
2021/08/07 01:34:22;;;;;;;10.77;5.40;;;;;;;13.03;77.42;98772.31;5076506;28;20340;-53
2021/08/07 01:36:49;;;;;;;8.48;3.97;;;;;;;13.00;77.08;98775.09;5076486;28;20127;-53
2021/08/07 01:39:25;;;;;;;7.90;4.13;;;;;;;12.95;77.35;98768.38;5092931;28;20346;-53
2021/08/07 01:41:52;;;;;;;7.70;4.07;;;;;;;12.94;77.92;98777.19;5110042;28;20055;-53
2021/08/07 01:44:23;;;;;;;8.77;4.60;;;;;;;12.93;78.63;98773.69;5093151;28;20045;-53
2021/08/07 01:47:00;;;;;;;8.30;4.22;;;;;;;12.96;78.89;98773.53;5092711;28;20053;-53
2021/08/07 01:49:38;;;;;;;10.25;5.63;;;;;;;12.95;79.15;98778.88;5093771;28;20052;-53
2021/08/07 01:52:08;;;;;;;11.60;5.53;;;;;;;12.91;78.65;98778.19;5093006;28;20170;-53
2021/08/07 01:54:49;;;;;;;9.38;5.15;;;;;;;12.88;78.73;98765.22;5109694;28;20033;-53
2021/08/07 01:57:17;;;;;;;8.73;4.60;;;;;;;12.86;78.70;98783.66;5059438;28;20045;-53
2021/08/07 01:59:44;;;;;;;9.43;5.53;;;;;;;12.82;78.58;98765.53;5042638;28;20052;-53
2021/08/07 02:02:11;;;;;;;10.07;5.53;;;;;;;12.86;78.75;98769.69;5059695;28;20106;-53
2021/08/07 02:04:44;;;;;;;13.27;5.75;;;;;;;12.86;78.64;98777.56;5044753;28;20085;-53
2021/08/07 02:07:20;;;;;;;13.45;5.65;;;;;;;12.86;78.73;98782.81;5075585;28;20507;-53
2021/08/07 02:09:51;;;;;;;10.80;5.53;;;;;;;12.89;79.67;98787.09;5044486;28;20040;-53
2021/08/07 02:12:18;;;;;;;13.00;5.10;;;;;;;12.93;80.06;98778.09;5059799;28;20419;-53
2021/08/07 02:14:51;;;;;;;10.38;5.43;;;;;;;12.98;80.36;98778.72;5075755;28;20048;-53
2021/08/07 02:17:19;;;;;;;7.70;4.15;;;;;;;13.03;80.24;98779.34;5075621;28;20044;-53
2021/08/07 02:19:45;;;;;;;11.07;4.35;;;;;;;13.09;80.47;98776.41;5092501;28;20059;-53
2021/08/07 02:22:12;;;;;;;6.18;4.10;;;;;;;13.16;80.57;98787.44;5075248;28;20060;-53
2021/08/07 02:24:41;;;;;;;8.27;4.70;;;;;;;13.22;80.85;98784.50;5092194;28;20048;-53
2021/08/07 02:27:11;;;;;;;6.10;3.83;;;;;;;13.27;80.97;98782.53;5059762;28;20059;-53
2021/08/07 02:29:39;;;;;;;6.90;4.07;;;;;;;13.33;81.01;98782.22;5092124;28;20051;-53
2021/08/07 02:32:09;;;;;;;8.88;4.68;;;;;;;13.39;81.01;98781.88;5075607;28;20442;-53
2021/08/07 02:34:37;;;;;;;7.93;4.40;;;;;;;13.45;81.06;98786.78;5075653;28;20109;-53
2021/08/07 02:37:07;;;;;;;8.50;4.22;;;;;;;13.48;80.98;98775.28;5075595;28;20040;-53
2021/08/07 02:39:36;;;;;;;8.13;4.45;;;;;;;13.49;81.43;98777.84;5092699;28;20086;-53
2021/08/07 02:42:04;;;;;;;6.53;4.18;;;;;;;13.55;81.29;98785.41;5059025;28;20465;-53
2021/08/07 02:44:37;;;;;;;5.57;4.30;;;;;;;13.61;81.61;98789.47;5059739;28;20070;-53
2021/08/07 02:47:02;;;;;;;6.55;4.60;;;;;;;13.66;81.76;98789.25;5075882;28;20056;-53
2021/08/07 02:49:29;;;;;;;6.40;3.85;;;;;;;13.67;81.49;98788.28;5075435;28;20044;-53
2021/08/07 02:51:55;;;;;;;7.00;4.13;;;;;;;13.68;81.53;98790.88;5058456;28;20408;-53
2021/08/07 02:54:22;;;;;;;7.10;3.88;;;;;;;13.77;81.51;98792.97;5074971;28;20056;-53
2021/08/07 02:56:48;;;;;;;7.15;3.97;;;;;;;13.82;81.68;98792.75;5092128;28;20078;-53
2021/08/07 02:59:14;;;;;;;8.35;4.03;;;;;;;13.85;81.62;98799.63;5075585;28;20451;-53
2021/08/07 03:01:39;;;;;;;7.88;4.00;;;;;;;13.89;81.42;98804.63;5074954;28;20040;-53
2021/08/07 03:04:07;;;;;;;6.75;3.65;;;;;;;13.94;81.48;98804.38;5091702;28;20139;-53
2021/08/07 03:06:34;;;;;;;6.00;3.95;;;;;;;13.98;81.44;98803.28;5091615;28;20439;-53
2021/08/07 03:09:03;;;;;;;5.40;4.40;;;;;;;13.99;81.38;98795.28;5074825;28;20128;-53
2021/08/07 03:11:30;;;;;;;7.18;3.97;;;;;;;14.01;81.59;98793.44;5091899;28;20048;-53
2021/08/07 03:14:01;;;;;;;5.70;3.90;;;;;;;14.02;81.55;98797.75;5091910;28;20126;-53
2021/08/07 03:16:32;;;;;;;6.22;3.55;;;;;;;14.05;81.60;98801.16;5091688;28;20504;-53
2021/08/07 03:19:01;;;;;;;6.28;3.90;;;;;;;14.08;81.45;98798.38;5091816;28;20052;-53
2021/08/07 03:21:29;;;;;;;5.50;4.05;;;;;;;14.09;81.38;98798.25;5075559;28;20052;-53
2021/08/07 03:23:59;;;;;;;5.57;4.25;;;;;;;14.10;81.34;98799.94;5091883;28;20048;-53
2021/08/07 03:26:26;;;;;;;8.27;3.97;;;;;;;14.13;81.31;98798.94;5091828;28;20052;-53
2021/08/07 03:28:55;;;;;;;7.63;3.67;;;;;;;14.16;81.43;98806.69;5091661;28;20048;-53
2021/08/07 03:31:22;;;;;;;6.55;4.13;;;;;;;14.18;81.26;98804.81;5075490;28;20044;-53
2021/08/07 03:33:48;;;;;;;7.03;4.45;;;;;;;14.18;81.44;98796.91;5091688;28;20060;-53
2021/08/07 03:36:16;;;;;;;5.78;3.90;;;;;;;14.19;82.06;98798.59;5094311;28;20370;-53
2021/08/07 03:38:48;;;;;;;6.13;3.88;;;;;;;14.22;82.24;98804.53;5095887;28;20071;-53
2021/08/07 03:41:14;;;;;;;7.78;4.57;;;;;;;14.25;82.41;98803.53;5095207;28;20102;-53
2021/08/07 03:43:41;;;;;;;3.92;3.42;;;;;;;14.30;82.64;98811.16;5095420;28;20385;-53
2021/08/07 03:46:07;;;;;;;5.10;3.58;;;;;;;14.32;82.69;98812.78;5078193;28;20443;-53
2021/08/07 03:48:33;;;;;;;5.13;3.80;;;;;;;14.36;82.70;98816.94;5095098;28;20044;-53
2021/08/07 03:50:59;;;;;;;6.97;3.85;;;;;;;14.40;83.43;98817.66;5078453;28;20048;-53
2021/08/07 03:53:41;;;;;;;6.25;4.15;;;;;;;14.45;83.72;98812.94;5092921;28;20055;-53
2021/08/07 03:56:07;;;;;;;7.75;4.15;;;;;;;14.48;83.77;98821.53;5078235;28;20110;-53
2021/08/07 03:58:36;;;;;;;7.80;4.95;;;;;;;14.56;83.82;98815.00;5094872;28;20183;-53
2021/08/07 04:01:09;;;;;;;6.20;4.32;;;;;;;14.58;83.73;98802.59;5095350;28;20044;-53
2021/08/07 04:03:36;;;;;;;7.35;4.88;;;;;;;14.69;83.77;98818.66;5112062;28;20054;-53
2021/08/07 04:06:03;;;;;;;5.50;4.22;;;;;;;14.73;83.91;98810.47;5077910;28;20037;-53
2021/08/07 04:08:31;;;;;;;6.20;4.38;;;;;;;14.79;83.69;98816.34;5111556;28;20040;-53
2021/08/07 04:10:57;;;;;;;5.82;3.83;;;;;;;14.85;83.86;98813.31;5078256;28;20427;-53
2021/08/07 04:13:26;;;;;;;6.40;4.22;;;;;;;14.87;84.03;98809.66;5094561;28;20073;-53
2021/08/07 04:15:53;;;;;;;4.85;4.15;;;;;;;14.93;84.28;98819.84;5078873;28;20040;-53
2021/08/07 04:18:20;;;;;;;7.07;4.60;;;;;;;15.01;84.17;98808.84;5061075;28;20124;-53
2021/08/07 04:20:47;;;;;;;4.95;4.20;;;;;;;15.06;84.01;98806.81;5094440;28;20051;-53
2021/08/07 04:23:14;;;;;;;10.45;4.72;;;;;;;15.13;84.23;98821.31;5077582;28;20048;-53
2021/08/07 04:25:42;;;;;;;5.78;4.07;;;;;;;15.21;84.28;98812.97;5077783;28;20056;-53
2021/08/07 04:28:08;;;;;;;4.88;3.50;;;;;;;15.27;84.00;98815.22;5077774;28;20055;-53
2021/08/07 04:30:35;;;;;;;5.15;4.47;;;;;;;15.31;84.03;98824.66;5061307;28;20377;-53
2021/08/07 04:33:03;;;;;;;5.57;4.68;;;;;;;15.34;84.28;98819.19;5094186;28;20128;-53
2021/08/07 04:35:31;;;;;;;7.18;5.63;;;;;;;15.46;84.09;98816.75;5094148;28;20461;-53
2021/08/07 04:37:58;;;;;;;7.03;5.35;;;;;;;15.57;84.19;98819.59;5094360;28;20071;-54
2021/08/07 04:40:38;;;;;;;6.15;4.70;;;;;;;15.66;84.15;98811.09;5077232;28;20474;-53
2021/08/07 04:43:19;;;;;;;6.97;6.25;;;;;;;15.99;84.25;98823.16;5077452;28;20094;-53
2021/08/07 04:45:44;;;;;;;6.45;5.45;;;;;;;16.41;84.08;98811.69;5110831;28;20044;-53
2021/08/07 04:48:12;;;;;;;9.80;6.00;;;;;;;16.79;83.41;98808.34;5094060;28;20045;-53
2021/08/07 04:50:58;;;;;;;5.78;5.20;;;;;;;17.19;82.17;98811.84;5074090;28;20447;-53
2021/08/07 04:53:24;;;;;;;6.93;4.50;;;;;;;17.42;80.65;98818.19;5094168;28;20057;-53
2021/08/07 04:55:58;;;;;;;7.65;4.78;;;;;;;17.54;80.28;98824.44;5078177;28;20048;-53
2021/08/07 04:58:24;;;;;;;8.05;4.72;;;;;;;17.72;80.00;98830.25;5077813;28;20094;-53
2021/08/07 05:00:50;;;;;;;5.72;4.40;;;;;;;18.10;79.84;98830.25;5094011;28;20081;-53
2021/08/07 05:03:16;;;;;;;10.18;4.50;;;;;;;18.53;78.63;98826.28;5077122;28;20133;-53
2021/08/07 05:05:44;;;;;;;11.30;4.13;;;;;;;18.81;76.53;98818.00;5077001;28;20139;-53
2021/08/07 05:08:13;;;;;;;6.22;4.10;;;;;;;19.29;75.57;98822.38;5093466;28;20053;-53
2021/08/07 05:10:42;;;;;;;5.57;3.60;;;;;;;19.69;74.17;98835.25;5093746;28;20112;-53
2021/08/07 05:13:09;;;;;;;5.70;3.58;;;;;;;19.97;73.16;98829.47;5093753;28;20064;-54
2021/08/07 05:15:35;;;;;;;6.05;3.65;;;;;;;20.30;71.83;98838.38;5077738;28;20091;-53
2021/08/07 05:18:03;;;;;;;7.70;3.50;;;;;;;20.85;71.08;98843.72;5077604;28;20045;-53
2021/08/07 05:20:30;;;;;;;6.30;3.55;;;;;;;21.25;69.73;98841.22;5093610;28;20055;-53
2021/08/07 05:22:55;;;;;;;8.60;3.20;;;;;;;21.50;68.70;98834.69;5093565;28;20350;-54
2021/08/07 05:25:21;;;;;;;8.25;3.95;;;;;;;21.82;67.57;98826.59;5110431;28;20048;-54
2021/08/07 05:27:50;;;;;;;5.53;3.28;;;;;;;22.14;65.88;98839.78;5093523;28;20044;-54
2021/08/07 05:30:16;;;;;;;4.32;3.05;;;;;;;22.36;65.24;98845.94;5093137;28;20431;-54
2021/08/07 05:32:43;;;;;;;3.85;2.67;;;;;;;22.57;64.32;98843.16;5093025;28;20056;-54
2021/08/07 05:35:10;;;;;;;2.83;2.53;;;;;;;22.80;63.70;98847.25;5093291;28;20068;-54
2021/08/07 05:37:40;;;;;;;3.92;2.90;;;;;;;23.03;62.76;98841.66;5093741;28;20041;-54
2021/08/07 05:40:08;;;;;;;4.15;2.67;;;;;;;23.43;62.13;98851.31;5093330;28;20048;-54
2021/08/07 05:42:34;;;;;;;5.78;2.80;;;;;;;23.53;61.11;98842.31;5093136;28;20509;-54
2021/08/07 05:45:00;;;;;;;4.78;2.25;;;;;;;23.89;60.96;98850.56;5092945;28;20067;-54
2021/08/07 05:47:27;;;;;;;4.03;2.60;;;;;;;24.23;60.19;98848.13;5076757;28;20048;-54
2021/08/07 05:49:53;;;;;;;3.45;2.35;;;;;;;24.63;59.83;98854.97;5092811;28;20093;-54
2021/08/07 05:52:19;;;;;;;5.22;2.28;;;;;;;24.97;58.53;98851.66;5092737;28;20090;-54
2021/08/07 05:54:45;;;;;;;5.82;1.98;;;;;;;25.13;57.75;98849.16;5076652;28;20036;-54
2021/08/07 05:57:12;;;;;;;4.85;2.17;;;;;;;25.21;57.10;98843.00;5075537;28;20064;-54
2021/08/07 05:59:38;;;;;;;2.92;2.30;;;;;;;25.01;55.60;98847.66;5109099;28;20057;-54
2021/08/07 06:02:05;;;;;;;2.58;2.00;;;;;;;25.34;55.93;98853.31;5076836;28;20127;-54
2021/08/07 06:04:31;;;;;;;3.00;1.95;;;;;;;25.73;55.27;98850.25;5092478;28;20059;-54
2021/08/07 06:07:01;;;;;;;3.20;1.85;;;;;;;25.81;54.43;98845.00;5075870;28;20049;-55
2021/08/07 06:09:28;;;;;;;2.67;1.55;;;;;;;25.82;54.28;98850.19;5075598;28;20435;-55
2021/08/07 06:11:53;;;;;;;3.17;1.80;;;;;;;26.05;54.18;98855.81;5076359;28;20068;-55
2021/08/07 06:14:20;;;;;;;2.92;1.50;;;;;;;26.44;52.96;98857.16;5092598;28;20060;-55
2021/08/07 06:16:45;;;;;;;4.93;1.40;;;;;;;26.80;52.45;98858.63;5076339;28;20437;-55
2021/08/07 06:19:12;;;;;;;4.25;1.90;;;;;;;26.83;51.74;98853.94;5092443;28;20045;-55
2021/08/07 06:21:40;;;;;;;3.78;1.45;;;;;;;27.20;51.49;98858.88;5092180;28;20113;-55
2021/08/07 06:24:06;;;;;;;2.58;1.75;;;;;;;27.26;50.44;98853.66;5109396;28;20427;-55
2021/08/07 06:26:33;;;;;;;2.20;1.33;;;;;;;27.18;49.98;98858.22;5075279;28;20439;-55
2021/08/07 06:29:01;;;;;;;2.63;1.20;;;;;;;27.47;50.08;98858.53;5075473;28;20059;-55
2021/08/07 06:31:27;;;;;;;3.83;1.38;;;;;;;27.63;49.57;98864.91;5092336;28;20052;-55
2021/08/07 06:33:54;;;;;;;1.90;1.00;;;;;;;27.84;48.81;98859.03;5092353;28;20151;-55
2021/08/07 06:36:20;;;;;;;4.80;2.00;;;;;;;27.98;48.47;98868.22;5092084;28;20064;-55
2021/08/07 06:38:46;;;;;;;2.30;1.30;;;;;;;28.23;48.82;98869.00;5076305;28;20047;-55
2021/08/07 06:41:12;;;;;;;1.58;1.20;;;;;;;28.51;47.72;98881.03;5092322;28;20400;-55
2021/08/07 06:43:57;;;;;;;1.45;1.20;;;;;;;28.65;46.15;98876.75;5075890;28;20071;-55
2021/08/07 06:46:35;;;;;;;1.23;0.80;;;;;;;28.75;46.51;98873.81;5076158;28;20056;-55
2021/08/07 06:49:01;;;;;;;2.03;1.20;;;;;;;28.88;46.63;98874.91;5109046;28;20040;-55
2021/08/07 06:51:27;;;;;;;1.38;1.00;;;;;;;28.89;44.80;98870.34;5109006;28;20063;-56
2021/08/07 06:53:52;;;;;;;1.60;1.23;;;;;;;29.10;44.25;98875.16;5076188;28;20048;-56
2021/08/07 06:56:19;;;;;;;2.92;0.95;;;;;;;29.06;45.40;98861.19;5092116;28;20048;-56
2021/08/07 06:58:45;;;;;;;2.38;1.05;;;;;;;29.27;45.37;98871.28;5091546;28;20457;-56
2021/08/07 07:01:11;;;;;;;3.38;1.00;;;;;;;29.39;44.71;98881.66;5075428;28;20072;-56
2021/08/07 07:03:39;;;;;;;3.85;1.55;;;;;;;29.30;43.66;98879.03;5091835;28;20359;-56
2021/08/07 07:06:05;;;;;;;4.63;1.20;;;;;;;29.28;44.69;98870.28;5091980;28;20059;-56
2021/08/07 07:08:32;;;;;;;4.60;1.00;;;;;;;29.47;44.04;98878.88;5092128;28;20059;-56
2021/08/07 07:10:58;;;;;;;2.47;0.68;;;;;;;29.64;44.04;98887.69;5079186;28;20052;-56
2021/08/07 07:13:23;;;;;;;3.08;1.10;;;;;;;29.66;43.46;98886.50;5095815;28;20450;-56
2021/08/07 07:15:49;;;;;;;1.90;0.98;;;;;;;29.48;44.18;98894.06;5095776;28;20043;-56
2021/08/07 07:18:16;;;;;;;1.98;0.73;;;;;;;29.56;43.55;98891.28;5079188;28;20044;-56
2021/08/07 07:20:43;;;;;;;1.88;0.75;;;;;;;29.68;44.02;98889.03;5095719;28;20051;-56
2021/08/07 07:23:09;;;;;;;2.17;0.70;;;;;;;29.80;43.34;98887.53;5045623;28;20040;-56
2021/08/07 07:25:39;;;;;;;2.50;0.85;;;;;;;29.64;43.92;98888.56;5078683;28;20477;-56
2021/08/07 07:28:04;;;;;;;1.98;1.05;;;;;;;29.80;42.43;98888.41;5079536;28;20040;-56
2021/08/07 07:30:30;;;;;;;3.35;1.08;;;;;;;29.68;43.68;98891.72;5078538;28;20055;-56
2021/08/07 07:32:58;;;;;;;3.75;1.10;;;;;;;29.84;43.98;98904.22;5078498;28;20048;-56
2021/08/07 07:35:24;;;;;;;2.20;0.80;;;;;;;29.88;43.69;98903.66;5095338;28;20144;-56
2021/08/07 07:37:50;;;;;;;0.70;0.60;;;;;;;30.05;43.89;98907.03;5095262;28;20044;-56
2021/08/07 07:40:17;;;;;;;1.33;0.50;;;;;;;30.16;44.06;98900.31;5095312;28;20431;-56
2021/08/07 07:42:44;;;;;;;2.15;0.80;;;;;;;30.49;43.75;98904.34;5095504;28;20056;-56
2021/08/07 07:45:10;;;;;;;1.33;0.70;;;;;;;30.48;42.99;98908.09;5078465;28;20495;-56
2021/08/07 07:47:39;;;;;;;2.28;1.02;;;;;;;30.43;43.05;98899.69;5112346;28;20067;-56
2021/08/07 07:50:09;;;;;;;0.98;0.55;;;;;;;30.19;42.50;98906.25;5095363;28;20358;-56
2021/08/07 07:52:36;;;;;;;1.45;0.90;;;;;;;30.14;43.05;98913.19;5078631;28;20097;-56
2021/08/07 07:55:02;;;;;;;3.40;0.75;;;;;;;30.20;43.61;98909.78;5095070;28;20041;-56
2021/08/07 07:57:33;;;;;;;1.95;0.60;;;;;;;29.99;43.60;98908.59;5079165;28;20045;-56
2021/08/07 07:59:59;;;;;;;2.10;0.95;;;;;;;29.88;42.85;98914.44;5077940;28;20060;-57
2021/08/07 08:02:26;;;;;;;3.38;0.63;;;;;;;29.71;44.30;98929.97;5078139;28;20465;-57
2021/08/07 08:04:54;;;;;;;4.25;0.52;;;;;;;29.55;43.75;98930.91;5112013;28;20060;-56
2021/08/07 08:07:20;;;;;;;3.13;0.80;;;;;;;29.67;44.75;98922.41;5078191;28;20048;-56
2021/08/07 08:09:46;;;;;;;2.55;1.02;;;;;;;29.65;44.74;98905.56;5111939;28;20055;-56
2021/08/07 08:12:12;;;;;;;3.67;0.88;;;;;;;29.63;44.42;98911.13;5077827;28;20358;-56
2021/08/07 08:14:38;;;;;;;1.95;0.88;;;;;;;29.64;44.61;98922.75;5078113;28;20063;-56
2021/08/07 08:17:05;;;;;;;4.32;0.90;;;;;;;29.56;43.73;98920.94;5078843;28;20045;-56
2021/08/07 08:19:33;;;;;;;2.00;1.15;;;;;;;29.41;44.09;98922.75;5094803;28;20040;-56
2021/08/07 08:22:00;;;;;;;1.90;0.95;;;;;;;29.35;44.95;98937.81;5093654;28;20393;-56
2021/08/07 08:24:26;;;;;;;1.77;0.50;;;;;;;29.46;45.45;98923.91;5078391;28;20052;-56
2021/08/07 08:26:52;;;;;;;1.20;0.80;;;;;;;29.45;45.16;98921.41;5094685;28;20140;-56
2021/08/07 08:29:18;;;;;;;1.92;0.82;;;;;;;29.36;45.34;98920.59;5078582;28;20101;-56
2021/08/07 08:31:44;;;;;;;0.88;0.50;;;;;;;29.30;44.28;98924.84;5094584;28;20131;-56
2021/08/07 08:34:11;;;;;;;0.68;0.50;;;;;;;29.29;45.43;98928.59;5094609;28;20068;-56
2021/08/07 08:36:36;;;;;;;1.27;0.40;;;;;;;29.36;44.49;98915.22;5094603;28;20059;-56
2021/08/07 08:39:03;;;;;;;1.08;0.70;;;;;;;29.28;45.15;98926.06;5111024;28;20056;-56
2021/08/07 08:41:33;;;;;;;1.80;0.57;;;;;;;29.19;43.75;98927.97;5094407;28;20080;-56
2021/08/07 08:43:59;;;;;;;2.67;1.00;;;;;;;28.94;43.67;98929.94;5094463;28;20061;-56
2021/08/07 08:46:25;;;;;;;1.73;0.70;;;;;;;28.76;43.73;98923.97;5060887;28;20057;-58
2021/08/07 08:48:51;;;;;;;0.80;0.50;;;;;;;28.63;44.90;98932.63;5060803;28;20409;-56
2021/08/07 08:51:16;;;;;;;0.98;0.68;;;;;;;28.62;45.39;98933.66;5094229;28;20048;-57
2021/08/07 08:53:44;;;;;;;2.47;0.70;;;;;;;28.79;45.16;98929.84;5093884;28;20446;-56
2021/08/07 08:56:10;;;;;;;0.95;0.65;;;;;;;28.89;45.49;98933.19;5077839;28;20434;-56
2021/08/07 08:58:36;;;;;;;1.70;0.60;;;;;;;28.73;43.47;98935.97;5076955;28;20062;-57
2021/08/07 09:01:07;;;;;;;1.10;0.50;;;;;;;28.57;43.90;98936.03;5077258;28;20113;-57
2021/08/07 09:03:32;;;;;;;1.60;0.52;;;;;;;28.35;44.37;98929.53;5044017;28;20059;-57
2021/08/07 09:05:58;;;;;;;3.08;0.40;;;;;;;28.05;44.21;98933.81;5077954;28;20060;-57
2021/08/07 09:08:24;;;;;;;1.33;0.60;;;;;;;28.08;45.09;98928.94;5076728;28;20106;-56
2021/08/07 09:11:17;;;;;;;0.88;0.50;;;;;;;28.21;44.46;98933.78;5076969;28;20044;-57
2021/08/07 09:13:46;;;;;;;1.83;0.50;;;;;;;28.50;46.66;98937.72;5110501;28;20044;-56
2021/08/07 09:16:14;;;;;;;1.45;0.70;;;;;;;28.72;46.70;98942.34;5076901;28;20117;-56
2021/08/07 09:18:41;;;;;;;0.90;0.43;;;;;;;28.88;45.85;98926.09;5077629;28;20072;-56
2021/08/07 09:21:13;;;;;;;1.02;0.40;;;;;;;29.03;45.34;98937.00;5093303;28;20078;-56
2021/08/07 09:23:41;;;;;;;2.47;0.30;;;;;;;29.10;44.02;98940.66;5076481;28;20475;-56
2021/08/07 09:26:12;;;;;;;0.85;0.60;;;;;;;29.23;42.54;98937.38;5093286;28;20051;-57
2021/08/07 09:28:49;;;;;;;2.58;0.50;;;;;;;29.19;41.66;98936.06;5110016;28;20454;-58
2021/08/07 09:31:15;;;;;;;3.30;0.68;;;;;;;28.89;42.59;98937.72;5076586;28;20070;-57
2021/08/07 09:33:42;;;;;;;2.22;0.30;;;;;;;28.69;42.66;98934.63;5109985;28;20040;-57
2021/08/07 09:36:08;;;;;;;1.33;0.50;;;;;;;28.54;43.20;98933.69;5076343;28;20328;-56
2021/08/07 09:38:42;;;;;;;0.95;0.43;;;;;;;28.58;44.48;98932.34;5076338;28;20347;-56
2021/08/07 09:41:10;;;;;;;1.85;0.55;;;;;;;28.62;44.16;98929.09;5044225;28;20040;-56
2021/08/07 09:43:49;;;;;;;2.60;0.50;;;;;;;28.72;43.51;98938.81;5076316;28;20057;-56
2021/08/07 09:46:21;;;;;;;1.02;0.35;;;;;;;28.82;43.52;98929.50;5076278;28;20056;-56
2021/08/07 09:48:55;;;;;;;1.73;0.77;;;;;;;28.72;43.73;98936.97;5077019;28;20146;-56
2021/08/07 09:51:24;;;;;;;3.20;0.47;;;;;;;28.89;45.11;98932.31;5076512;28;20401;-56
2021/08/07 09:54:15;;;;;;;1.02;0.40;;;;;;;29.07;43.65;98935.63;5092984;28;20075;-56
2021/08/07 09:56:49;;;;;;;1.80;0.63;;;;;;;29.13;42.97;98936.78;5077832;28;20060;-56
2021/08/07 09:59:16;;;;;;;2.83;0.57;;;;;;;29.24;42.59;98930.13;5075486;28;20048;-56
2021/08/07 10:01:44;;;;;;;1.60;0.70;;;;;;;29.04;41.55;98935.16;5075661;28;20147;-57
2021/08/07 10:04:12;;;;;;;1.15;0.45;;;;;;;28.86;43.19;98930.84;5109696;28;20056;-56
2021/08/07 10:06:41;;;;;;;0.90;0.40;;;;;;;29.03;43.12;98925.41;5075966;28;20045;-56
2021/08/07 10:09:09;;;;;;;1.60;1.15;;;;;;;29.03;42.78;98928.09;5075543;28;20036;-56
2021/08/07 10:11:35;;;;;;;1.50;0.55;;;;;;;29.14;42.99;98938.44;5075816;28;20109;-56
2021/08/07 10:14:02;;;;;;;0.93;0.50;;;;;;;29.19;41.46;98938.78;5092667;28;20063;-57
2021/08/07 10:16:35;;;;;;;1.88;0.63;;;;;;;29.30;42.58;98930.25;5092447;28;20060;-57
2021/08/07 10:19:01;;;;;;;0.60;0.45;;;;;;;29.50;41.61;98929.75;5075472;28;20040;-57
2021/08/07 10:21:28;;;;;;;1.42;0.50;;;;;;;29.50;40.83;98932.47;5075938;28;20044;-57
2021/08/07 10:23:54;;;;;;;1.73;0.30;;;;;;;29.56;40.33;98934.44;5075663;28;20110;-57
2021/08/07 10:26:22;;;;;;;2.63;0.50;;;;;;;29.66;40.54;98934.22;5092720;28;20048;-57
2021/08/07 10:28:57;;;;;;;2.50;0.50;;;;;;;29.75;40.43;98925.88;5059509;28;20350;-57
2021/08/07 10:31:24;;;;;;;1.05;0.40;;;;;;;29.84;40.35;98932.03;5076217;28;20331;-57
2021/08/07 10:33:59;;;;;;;0.85;0.50;;;;;;;29.77;39.52;98931.09;5092268;28;20431;-57
2021/08/07 10:36:27;;;;;;;0.60;0.38;;;;;;;29.74;40.78;98940.41;5076183;28;20037;-56
2021/08/07 10:38:53;;;;;;;0.90;0.50;;;;;;;29.70;38.63;98939.06;5058957;28;20094;-57
2021/08/07 10:41:19;;;;;;;0.63;0.40;;;;;;;29.75;39.73;98938.53;5058884;28;20127;-57
2021/08/07 10:43:49;;;;;;;0.60;0.35;;;;;;;29.60;38.16;98927.69;5091476;28;20037;-57
2021/08/07 10:46:15;;;;;;;0.80;0.30;;;;;;;29.33;39.35;98946.06;5075379;28;20383;-56
2021/08/07 10:48:42;;;;;;;2.20;0.50;;;;;;;29.37;40.60;98933.06;5075425;28;20128;-56
2021/08/07 10:51:24;;;;;;;0.50;0.40;;;;;;;29.23;38.83;98932.00;5059986;28;20346;-56
2021/08/07 10:54:00;;;;;;;2.58;0.80;;;;;;;29.31;41.17;98931.94;5075922;28;20064;-56
2021/08/07 10:56:29;;;;;;;2.45;0.43;;;;;;;29.34;40.23;98933.41;5092149;28;20052;-56
2021/08/07 10:59:16;;;;;;;1.15;0.52;;;;;;;29.22;39.45;98932.19;5076012;28;20086;-56
2021/08/07 11:01:50;;;;;;;3.42;0.52;;;;;;;29.22;40.79;98930.31;5075076;28;20466;-56
2021/08/07 11:04:17;;;;;;;2.33;0.73;;;;;;;29.28;40.96;98924.22;5075823;28;20052;-56
2021/08/07 11:06:42;;;;;;;1.38;0.60;;;;;;;29.32;39.49;98920.13;5075900;28;20070;-56
2021/08/07 11:09:14;;;;;;;1.67;0.80;;;;;;;29.19;39.43;98930.69;5076320;28;20040;-56
2021/08/07 11:11:40;;;;;;;1.35;0.40;;;;;;;29.08;40.18;98926.50;5075718;28;20087;-56
2021/08/07 11:14:21;;;;;;;1.05;0.57;;;;;;;29.23;40.32;98917.69;5075969;28;20062;-56
2021/08/07 11:17:05;;;;;;;1.10;0.63;;;;;;;29.28;39.38;98915.25;5075986;28;20053;-56
2021/08/07 11:20:06;;;;;;;0.68;0.35;;;;;;;29.31;41.06;98909.50;5076639;28;20302;-56
2021/08/07 11:22:32;;;;;;;1.60;0.52;;;;;;;29.31;41.06;98905.00;5075736;28;20391;-56
2021/08/07 11:24:58;;;;;;;4.07;0.45;;;;;;;29.43;38.63;98899.97;5075562;28;20056;-57
2021/08/07 11:27:46;;;;;;;0.75;0.38;;;;;;;29.50;40.43;98900.94;5075823;28;20053;-56
2021/08/07 11:30:24;;;;;;;0.50;0.38;;;;;;;29.38;38.69;98910.50;5091771;28;20045;-56
2021/08/07 11:32:56;;;;;;;1.45;0.60;;;;;;;29.15;36.93;98905.06;5091818;28;20060;-56
2021/08/07 11:35:31;;;;;;;12.73;11.73;;;;;;;28.87;37.40;98899.34;5075777;28;20446;-56
2021/08/07 11:38:06;;;;;;;2.50;2.20;;;;;;;28.84;38.27;98902.41;5075437;28;20041;-56
2021/08/07 11:40:48;;;;;;;1.27;0.98;;;;;;;28.88;38.38;98899.16;5075767;28;20049;-56